createdAt,value
2022-09-09T00:04:31.836Z,5.77
2022-09-09T00:14:44.237Z,6.73
2022-09-09T00:24:56.117Z,6.60
2022-09-09T00:35:06.455Z,8.60
2022-09-09T00:45:38.846Z,7.47
2022-09-09T00:55:50.180Z,8.90
2022-09-09T01:06:06.093Z,8.60
2022-09-09T01:16:09.972Z,8.47
2022-09-09T01:26:21.042Z,9.57
2022-09-09T01:36:57.525Z,9.77
2022-09-09T01:47:02.357Z,9.17
2022-09-09T01:57:12.923Z,9.97
2022-09-09T02:07:40.882Z,11.20
2022-09-09T02:17:58.199Z,11.67
2022-09-09T02:28:08.814Z,10.83
2022-09-09T02:38:15.978Z,11.33
2022-09-09T02:48:56.195Z,10.30
2022-09-09T02:59:06.677Z,12.17
2022-09-09T03:09:16.017Z,11.93
2022-09-09T03:19:21.169Z,10.10
2022-09-09T03:29:24.616Z,11.17
2022-09-09T03:39:33.251Z,11.73
2022-09-09T03:49:37.623Z,11.90
2022-09-09T03:59:42.863Z,10.93
2022-09-09T04:09:50.313Z,11.20
2022-09-09T04:19:56.873Z,10.97
2022-09-09T04:30:02.116Z,11.50
2022-09-09T04:40:10.942Z,11.07
2022-09-09T04:50:13.527Z,9.27
2022-09-09T05:00:16.551Z,10.73
2022-09-09T05:10:19.815Z,9.07
2022-09-09T05:20:27.078Z,9.87
2022-09-09T05:30:31.523Z,11.13
2022-09-09T05:40:38.407Z,10.00
2022-09-09T05:50:41.116Z,10.40
2022-09-09T06:00:46.253Z,10.43
2022-09-09T06:10:50.929Z,11.63
2022-09-09T06:21:09.652Z,9.40
2022-09-09T06:31:15.379Z,11.97
2022-09-09T06:41:20.873Z,12.43
2022-09-09T06:51:28.371Z,11.40
2022-09-09T07:01:35.125Z,19.43
2022-09-09T07:11:49.852Z,13.83
2022-09-09T07:21:54.740Z,14.83
2022-09-09T07:32:00.137Z,13.77
2022-09-09T07:42:08.214Z,16.70
2022-09-09T07:52:15.926Z,17.00
2022-09-09T08:02:22.784Z,16.97
2022-09-09T08:12:30.342Z,20.33
2022-09-09T08:22:35.666Z,20.70
2022-09-09T08:32:43.358Z,18.87
2022-09-09T08:42:54.174Z,19.60
2022-09-09T08:53:11.804Z,20.53
2022-09-09T09:03:34.801Z,21.17
2022-09-09T09:13:54.778Z,24.50
2022-09-09T09:24:00.677Z,23.60
2022-09-09T09:34:06.064Z,22.33
2022-09-09T09:44:33.676Z,19.87
2022-09-09T09:54:43.483Z,24.50
2022-09-09T10:04:48.933Z,22.67
2022-09-09T10:15:34.615Z,23.77
2022-09-09T10:25:52.208Z,21.87
2022-09-09T10:36:15.410Z,22.73
2022-09-09T10:46:47.503Z,25.40
2022-09-09T10:57:00.187Z,29.98
2022-09-09T11:07:11.688Z,25.23
2022-09-09T11:17:18.097Z,26.07
2022-09-09T11:27:27.671Z,27.80
2022-09-09T11:38:13.555Z,30.50
2022-09-09T11:48:34.651Z,28.30
2022-09-09T11:58:42.972Z,27.37
2022-09-09T12:08:56.056Z,29.47
2022-09-09T12:19:17.021Z,29.83
2022-09-09T12:29:31.832Z,30.67
2022-09-09T12:39:43.712Z,32.23
2022-09-09T12:49:45.992Z,30.65
2022-09-09T12:59:49.710Z,29.88
2022-09-09T13:09:54.109Z,31.35
2022-09-09T13:19:57.332Z,30.60
2022-09-09T13:30:27.196Z,30.70
2022-09-09T13:40:33.154Z,32.00
2022-09-09T13:50:36.012Z,30.73
2022-09-09T14:00:38.144Z,31.48
2022-09-09T14:10:40.274Z,32.03
2022-09-09T14:20:47.206Z,27.70
2022-09-09T14:30:50.604Z,35.75
2022-09-09T14:40:59.690Z,34.43
2022-09-09T14:51:13.941Z,30.67
2022-09-09T15:01:19.952Z,30.50
2022-09-09T15:11:29.474Z,31.77
2022-09-09T15:21:37.717Z,30.80
2022-09-09T15:31:42.310Z,31.95
2022-09-09T15:41:47.036Z,30.58
2022-09-09T15:51:55.877Z,28.55
2022-09-09T16:02:00.404Z,25.23
2022-09-09T16:12:10.952Z,21.38
2022-09-09T16:22:19.253Z,26.63
2022-09-09T16:32:26.111Z,24.48
2022-09-09T16:42:28.769Z,25.80
2022-09-09T16:52:33.942Z,22.47
2022-09-09T17:02:39.511Z,23.95
2022-09-09T17:12:44.143Z,24.70
2022-09-09T17:22:49.348Z,25.07
2022-09-09T17:32:51.382Z,23.83
2022-09-09T17:42:59.769Z,24.20
2022-09-09T17:53:06.453Z,24.47
2022-09-09T18:03:09.549Z,26.17
2022-09-09T18:13:16.329Z,26.57
2022-09-09T18:23:18.620Z,24.57
2022-09-09T18:33:20.585Z,26.77
2022-09-09T18:43:22.773Z,26.27
2022-09-09T18:53:24.904Z,25.27
2022-09-09T19:03:30.407Z,24.00
2022-09-09T19:13:40.019Z,23.27
2022-09-09T19:23:46.941Z,19.90
2022-09-09T19:33:52.755Z,21.03
2022-09-09T19:44:03.803Z,21.17
2022-09-09T19:54:14.746Z,18.00
2022-09-09T20:04:22.422Z,20.02
2022-09-09T20:14:24.436Z,17.67
2022-09-09T20:24:26.486Z,18.07
2022-09-09T20:34:33.588Z,18.13
2022-09-09T20:44:37.912Z,18.83
2022-09-09T20:54:40.174Z,20.80
2022-09-09T21:04:47.693Z,19.87
2022-09-09T21:14:51.760Z,18.17
2022-09-09T21:24:58.805Z,20.57
2022-09-09T21:35:01.471Z,19.90
2022-09-09T21:45:06.648Z,17.47
2022-09-09T21:55:10.135Z,20.33
2022-09-09T22:05:16.490Z,18.07
2022-09-09T22:15:18.886Z,17.30
2022-09-09T22:25:23.956Z,19.50
2022-09-09T22:35:29.209Z,17.23
2022-09-09T22:45:37.456Z,18.37
2022-09-09T22:55:41.806Z,16.70
2022-09-09T23:05:56.656Z,16.97
2022-09-09T23:15:58.839Z,15.43
2022-09-09T23:26:11.041Z,13.80
2022-09-09T23:36:15.607Z,14.00
2022-09-09T23:46:25.611Z,15.00
2022-09-09T23:56:31.499Z,10.57
